createdAt,value
2023-04-16T00:00:58.820Z,2011.00
2023-04-16T00:01:58.941Z,1999.00
2023-04-16T00:02:58.922Z,1992.00
2023-04-16T00:03:59.178Z,1991.00
2023-04-16T00:04:58.783Z,1968.00
2023-04-16T00:05:58.761Z,2009.00
2023-04-16T00:06:58.728Z,1999.00
2023-04-16T00:07:58.709Z,1994.00
2023-04-16T00:08:58.669Z,1979.00
2023-04-16T00:09:58.674Z,1967.00
2023-04-16T00:10:58.642Z,1977.00
2023-04-16T00:11:58.769Z,2002.00
2023-04-16T00:12:58.625Z,1946.00
2023-04-16T00:13:58.595Z,1975.00
2023-04-16T00:14:58.577Z,1980.00
2023-04-16T00:15:58.574Z,2006.00
2023-04-16T00:16:58.586Z,1995.00
2023-04-16T00:17:58.562Z,1961.00
2023-04-16T00:18:58.522Z,1995.00
2023-04-16T00:19:58.509Z,1971.00
2023-04-16T00:20:58.477Z,1990.00
2023-04-16T00:21:58.465Z,1948.00
2023-04-16T00:22:58.459Z,1959.00
2023-04-16T00:23:58.458Z,1985.00
2023-04-16T00:24:58.459Z,1939.00
2023-04-16T00:25:58.467Z,1937.00
2023-04-16T00:26:58.455Z,1989.00
2023-04-16T00:27:58.450Z,1960.00
2023-04-16T00:28:58.460Z,1936.00
2023-04-16T00:29:58.438Z,1938.00
2023-04-16T00:30:58.444Z,1940.00
2023-04-16T00:31:58.428Z,1945.00
2023-04-16T00:32:58.470Z,1977.00
2023-04-16T00:33:58.397Z,1949.00
2023-04-16T00:34:58.375Z,1988.00
2023-04-16T00:35:58.355Z,1967.00
2023-04-16T00:36:58.348Z,1968.00
2023-04-16T00:37:58.320Z,1971.00
2023-04-16T00:38:58.310Z,1974.00
2023-04-16T00:39:58.286Z,1943.00
2023-04-16T00:40:58.264Z,1957.00
2023-04-16T00:41:58.297Z,1948.00
2023-04-16T00:42:58.233Z,1966.00
2023-04-16T00:43:58.230Z,2005.00
2023-04-16T00:44:58.205Z,1977.00
2023-04-16T00:45:58.213Z,1940.00
2023-04-16T00:46:58.171Z,1960.00
2023-04-16T00:48:58.138Z,1923.00
2023-04-16T00:49:58.131Z,1969.00
2023-04-16T00:50:58.116Z,1992.00
2023-04-16T00:51:58.101Z,1927.00
2023-04-16T00:52:58.107Z,1937.00
2023-04-16T00:53:58.070Z,1943.00
2023-04-16T00:54:58.054Z,1925.00
2023-04-16T00:55:58.038Z,1926.00
2023-04-16T00:56:58.026Z,1958.00
2023-04-16T00:57:58.024Z,1973.00
2023-04-16T00:58:58.012Z,1935.00
2023-04-16T00:59:57.973Z,1930.00
2023-04-16T01:00:57.976Z,1958.00
2023-04-16T01:01:58.039Z,1954.00
2023-04-16T01:02:58.077Z,1915.00
2023-04-16T01:03:58.053Z,1930.00
2023-04-16T01:04:57.904Z,1906.00
2023-04-16T01:05:57.883Z,1947.00
2023-04-16T01:06:57.897Z,1938.00
2023-04-16T01:07:57.888Z,1946.00
2023-04-16T01:08:57.866Z,1910.00
2023-04-16T01:09:57.872Z,1920.00
2023-04-16T01:10:57.878Z,1888.00
2023-04-16T01:11:57.881Z,1934.00
2023-04-16T01:12:57.887Z,1923.00
2023-04-16T01:13:57.902Z,1951.00
2023-04-16T01:14:57.904Z,1951.00
2023-04-16T01:15:57.964Z,1908.00
2023-04-16T01:16:57.940Z,1923.00
2023-04-16T01:17:58.069Z,1911.00
2023-04-16T01:18:57.957Z,1927.00
2023-04-16T01:19:57.968Z,1908.00
2023-04-16T01:20:57.968Z,1878.00
2023-04-16T01:21:57.974Z,1947.00
2023-04-16T01:22:57.978Z,1927.00
2023-04-16T01:23:58.005Z,1938.00
2023-04-16T01:24:57.998Z,1921.00
2023-04-16T01:25:58.008Z,1933.00
2023-04-16T01:26:58.008Z,1888.00
2023-04-16T01:27:58.015Z,1892.00
2023-04-16T01:28:58.020Z,1891.00
2023-04-16T01:29:58.003Z,1913.00
2023-04-16T01:30:58.020Z,1890.00
2023-04-16T01:31:58.022Z,1894.00
2023-04-16T01:32:58.077Z,1897.00
2023-04-16T01:33:58.037Z,1864.00
2023-04-16T01:34:58.063Z,1855.00
2023-04-16T01:35:58.050Z,1929.00
2023-04-16T01:36:58.071Z,1919.00
2023-04-16T01:37:58.060Z,1882.00
2023-04-16T01:38:58.066Z,1901.00
2023-04-16T01:39:58.095Z,1898.00
2023-04-16T01:40:58.104Z,1905.00
2023-04-16T01:41:58.112Z,1895.00
2023-04-16T01:42:58.105Z,1904.00
2023-04-16T01:43:58.121Z,1875.00
2023-04-16T01:44:58.124Z,1900.00
2023-04-16T01:45:58.128Z,1906.00
2023-04-16T01:46:58.359Z,1886.00
2023-04-16T01:47:58.231Z,1896.00
2023-04-16T01:48:58.152Z,1870.00
2023-04-16T01:49:58.153Z,1895.00
2023-04-16T01:50:58.164Z,1901.00
2023-04-16T01:51:58.309Z,1893.00
2023-04-16T01:52:58.196Z,1865.00
2023-04-16T01:53:58.212Z,1865.00
2023-04-16T01:54:58.192Z,1905.00
2023-04-16T01:55:58.204Z,1852.00
2023-04-16T01:56:58.205Z,1877.00
2023-04-16T01:57:58.212Z,1851.00
2023-04-16T01:58:58.213Z,1852.00
2023-04-16T01:59:58.209Z,1860.00
2023-04-16T02:00:58.256Z,1888.00
2023-04-16T02:01:58.262Z,1874.00
2023-04-16T02:02:58.370Z,1899.00
2023-04-16T02:03:58.397Z,1886.00
2023-04-16T02:04:58.262Z,1837.00
2023-04-16T02:05:58.236Z,1838.00
2023-04-16T02:06:58.222Z,1845.00
2023-04-16T02:07:58.205Z,1851.00
2023-04-16T02:08:58.174Z,1856.00
2023-04-16T02:09:58.183Z,1872.00
2023-04-16T02:10:58.147Z,1871.00
2023-04-16T02:11:58.132Z,1872.00
2023-04-16T02:12:58.113Z,1836.00
2023-04-16T02:13:58.102Z,1854.00
2023-04-16T02:14:58.116Z,1841.00
2023-04-16T02:15:58.085Z,1876.00
2023-04-16T02:16:58.051Z,1844.00
2023-04-16T02:17:58.068Z,1865.00
2023-04-16T02:18:58.007Z,1847.00
2023-04-16T02:19:58.013Z,1884.00
2023-04-16T02:20:57.988Z,1866.00
2023-04-16T02:21:57.981Z,1860.00
2023-04-16T02:22:57.996Z,1892.00
2023-04-16T02:23:58.019Z,1855.00
2023-04-16T02:24:58.045Z,1836.00
2023-04-16T02:25:58.075Z,1815.00
2023-04-16T02:26:58.079Z,1834.00
2023-04-16T02:27:58.090Z,1862.00
2023-04-16T02:28:58.110Z,1846.00
2023-04-16T02:29:58.135Z,1843.00
2023-04-16T02:30:58.168Z,1859.00
2023-04-16T02:31:58.207Z,1843.00
2023-04-16T02:32:58.237Z,1864.00
2023-04-16T02:33:58.202Z,1831.00
2023-04-16T02:34:58.231Z,1815.00
2023-04-16T02:35:58.238Z,1840.00
2023-04-16T02:36:58.256Z,1864.00
2023-04-16T02:37:58.257Z,1864.00
2023-04-16T02:38:58.233Z,1851.00
2023-04-16T02:39:58.225Z,1831.00
2023-04-16T02:40:58.221Z,1858.00
2023-04-16T02:41:58.212Z,1830.00
2023-04-16T02:42:58.215Z,1852.00
2023-04-16T02:43:58.191Z,1723.00
2023-04-16T02:44:58.194Z,1636.00
2023-04-16T02:45:58.226Z,1638.00
2023-04-16T02:46:58.168Z,1511.00
2023-04-16T02:47:58.219Z,1336.00
2023-04-16T02:48:58.133Z,1185.00
2023-04-16T02:49:58.120Z,1085.00
2023-04-16T02:50:58.099Z,947.00
2023-04-16T02:51:58.082Z,854.00
2023-04-16T02:52:58.075Z,768.00
2023-04-16T02:53:58.054Z,656.00
2023-04-16T02:54:58.046Z,648.00
2023-04-16T02:55:58.021Z,612.00
2023-04-16T02:56:58.019Z,591.00
2023-04-16T02:57:58.015Z,575.00
2023-04-16T02:58:57.985Z,564.00
2023-04-16T02:59:57.983Z,550.00
2023-04-16T03:00:58.029Z,516.00
2023-04-16T03:01:58.206Z,502.00
2023-04-16T03:02:58.210Z,501.00
2023-04-16T03:03:58.182Z,493.00
2023-04-16T03:04:58.242Z,500.00
2023-04-16T03:05:58.290Z,500.00
2023-04-16T03:06:58.350Z,506.00
2023-04-16T03:07:58.417Z,498.00
2023-04-16T03:08:58.485Z,500.00
2023-04-16T03:09:58.529Z,503.00
2023-04-16T03:10:58.575Z,502.00
2023-04-16T03:11:58.637Z,501.00
2023-04-16T03:12:58.717Z,502.00
2023-04-16T03:13:58.756Z,500.00
2023-04-16T03:14:58.801Z,500.00
2023-04-16T03:15:58.884Z,500.00
2023-04-16T03:16:58.887Z,502.00
2023-04-16T03:17:58.953Z,502.00
2023-04-16T03:18:58.907Z,505.00
2023-04-16T03:19:58.924Z,501.00
2023-04-16T03:20:58.924Z,503.00
2023-04-16T03:21:58.917Z,503.00
2023-04-16T03:22:58.954Z,504.00
2023-04-16T03:23:58.941Z,507.00
2023-04-16T03:24:58.965Z,500.00
2023-04-16T03:25:58.954Z,500.00
2023-04-16T03:26:59.009Z,500.00
2023-04-16T03:27:58.988Z,508.00
2023-04-16T03:28:58.998Z,506.00
2023-04-16T03:29:58.997Z,502.00
2023-04-16T03:30:59.054Z,503.00
2023-04-16T03:31:59.012Z,500.00
2023-04-16T03:32:59.050Z,510.00
2023-04-16T03:33:59.026Z,517.00
2023-04-16T03:34:59.029Z,517.00
2023-04-16T03:35:59.017Z,514.00
2023-04-16T03:36:59.019Z,502.00
2023-04-16T03:37:59.037Z,500.00
2023-04-16T03:38:59.048Z,500.00
2023-04-16T03:39:59.044Z,507.00
2023-04-16T03:40:59.060Z,504.00
2023-04-16T03:41:59.040Z,506.00
2023-04-16T03:42:59.043Z,505.00
2023-04-16T03:43:59.056Z,500.00
2023-04-16T03:44:59.067Z,505.00
2023-04-16T03:45:59.057Z,506.00
2023-04-16T03:46:59.088Z,502.00
2023-04-16T03:47:59.145Z,498.00
2023-04-16T03:48:59.063Z,499.00
2023-04-16T03:49:59.058Z,483.00
2023-04-16T03:50:59.064Z,485.00
2023-04-16T03:51:59.068Z,486.00
2023-04-16T03:52:59.061Z,518.00
2023-04-16T03:53:59.056Z,510.00
2023-04-16T03:54:59.055Z,514.00
2023-04-16T03:55:59.033Z,511.00
2023-04-16T03:56:59.036Z,507.00
2023-04-16T03:57:59.031Z,511.00
2023-04-16T03:58:59.027Z,509.00
2023-04-16T03:59:59.080Z,499.00
2023-04-16T04:00:59.022Z,509.00
2023-04-16T04:01:59.070Z,504.00
2023-04-16T04:02:59.168Z,520.00
2023-04-16T04:03:59.148Z,524.00
2023-04-16T04:04:59.083Z,519.00
2023-04-16T04:05:58.998Z,529.00
2023-04-16T04:06:58.989Z,528.00
2023-04-16T04:07:58.984Z,524.00
2023-04-16T04:08:58.995Z,517.00
2023-04-16T04:09:58.972Z,530.00
2023-04-16T04:10:58.963Z,519.00
2023-04-16T04:11:58.965Z,512.00
2023-04-16T04:12:58.974Z,514.00
2023-04-16T04:13:58.970Z,515.00
2023-04-16T04:14:58.965Z,515.00
2023-04-16T04:15:59.024Z,516.00
2023-04-16T04:16:59.048Z,525.00
2023-04-16T04:17:59.085Z,528.00
2023-04-16T04:18:59.068Z,525.00
2023-04-16T04:20:01.331Z,524.00
2023-04-16T04:20:59.084Z,543.00
2023-04-16T04:21:59.084Z,526.00
2023-04-16T04:22:59.096Z,525.00
2023-04-16T04:23:59.087Z,523.00
2023-04-16T04:24:59.116Z,527.00
2023-04-16T04:25:59.110Z,526.00
2023-04-16T04:26:59.074Z,518.00
2023-04-16T04:27:59.072Z,517.00
2023-04-16T04:28:59.086Z,524.00
2023-04-16T04:29:59.083Z,523.00
2023-04-16T04:30:59.069Z,514.00
2023-04-16T04:31:59.126Z,517.00
2023-04-16T04:32:59.148Z,514.00
2023-04-16T04:33:59.071Z,518.00
2023-04-16T04:34:59.057Z,519.00
2023-04-16T04:35:59.088Z,517.00
2023-04-16T04:36:59.074Z,523.00
2023-04-16T04:37:59.054Z,522.00
2023-04-16T04:38:59.056Z,522.00
2023-04-16T04:39:59.064Z,520.00
2023-04-16T04:40:59.065Z,525.00
2023-04-16T04:41:59.055Z,530.00
2023-04-16T04:42:59.069Z,519.00
2023-04-16T04:43:59.102Z,531.00
2023-04-16T04:44:59.064Z,516.00
2023-04-16T04:45:59.141Z,516.00
2023-04-16T04:46:59.060Z,510.00
2023-04-16T04:47:59.132Z,518.00
2023-04-16T04:48:59.070Z,501.00
2023-04-16T04:49:59.057Z,508.00
2023-04-16T04:50:59.069Z,501.00
2023-04-16T04:51:59.087Z,501.00
2023-04-16T04:52:59.084Z,486.00
2023-04-16T04:53:59.070Z,484.00
2023-04-16T04:54:59.073Z,483.00
2023-04-16T04:56:09.227Z,474.00
2023-04-16T04:57:00.077Z,479.00
2023-04-16T04:57:59.067Z,477.00
2023-04-16T04:58:59.079Z,477.00
2023-04-16T04:59:59.066Z,472.00
2023-04-16T05:00:59.102Z,475.00
2023-04-16T05:01:59.113Z,504.00
2023-04-16T05:02:59.110Z,506.00
2023-04-16T05:03:59.150Z,508.00
2023-04-16T05:04:59.094Z,521.00
2023-04-16T05:05:59.091Z,509.00
2023-04-16T05:06:59.045Z,518.00
2023-04-16T05:07:59.034Z,516.00
2023-04-16T05:08:59.035Z,512.00
2023-04-16T05:09:59.039Z,511.00
2023-04-16T05:10:59.047Z,521.00
2023-04-16T05:11:59.038Z,533.00
2023-04-16T05:12:59.046Z,532.00
2023-04-16T05:13:59.104Z,529.00
2023-04-16T05:14:59.130Z,543.00
2023-04-16T05:15:59.176Z,553.00
2023-04-16T05:16:59.366Z,548.00
2023-04-16T05:17:59.295Z,557.00
2023-04-16T05:18:59.316Z,557.00
2023-04-16T05:19:59.359Z,563.00
2023-04-16T05:20:59.398Z,569.00
2023-04-16T05:21:59.454Z,563.00
2023-04-16T05:22:59.507Z,570.00
2023-04-16T05:23:59.560Z,572.00
2023-04-16T05:24:59.614Z,584.00
2023-04-16T05:25:59.666Z,592.00
2023-04-16T05:26:59.722Z,593.00
2023-04-16T05:27:59.774Z,582.00
2023-04-16T05:28:59.820Z,594.00
2023-04-16T05:29:59.871Z,600.00
2023-04-16T05:30:59.932Z,609.00
2023-04-16T05:31:59.964Z,605.00
2023-04-16T05:33:00.117Z,600.00
2023-04-16T05:34:00.049Z,608.00
2023-04-16T05:35:00.119Z,615.00
2023-04-16T05:36:00.176Z,604.00
2023-04-16T05:37:00.155Z,604.00
2023-04-16T05:38:00.159Z,606.00
2023-04-16T05:39:00.166Z,607.00
2023-04-16T05:40:00.244Z,614.00
2023-04-16T05:41:00.158Z,619.00
2023-04-16T05:42:00.192Z,632.00
2023-04-16T05:43:00.168Z,631.00
2023-04-16T05:44:00.174Z,630.00
2023-04-16T05:45:00.176Z,633.00
2023-04-16T05:46:00.304Z,643.00
2023-04-16T05:47:00.190Z,643.00
2023-04-16T05:48:00.321Z,649.00
2023-04-16T05:49:00.207Z,649.00
2023-04-16T05:50:00.215Z,652.00
2023-04-16T05:51:00.218Z,659.00
2023-04-16T05:52:00.210Z,668.00
2023-04-16T05:53:00.226Z,715.00
2023-04-16T05:54:00.257Z,724.00
2023-04-16T05:55:00.221Z,716.00
2023-04-16T05:56:00.213Z,730.00
2023-04-16T05:57:00.212Z,791.00
2023-04-16T05:58:00.231Z,819.00
2023-04-16T05:59:00.214Z,827.00
2023-04-16T06:00:00.277Z,840.00
2023-04-16T06:01:00.274Z,813.00
2023-04-16T06:02:00.354Z,842.00
2023-04-16T06:03:00.486Z,853.00
2023-04-16T06:04:00.509Z,853.00
2023-04-16T06:05:00.472Z,879.00
2023-04-16T06:06:00.596Z,889.00
2023-04-16T06:07:00.558Z,881.00
2023-04-16T06:08:00.617Z,858.00
2023-04-16T06:09:00.675Z,852.00
2023-04-16T06:10:00.723Z,827.00
2023-04-16T06:11:00.756Z,825.00
2023-04-16T06:12:00.800Z,815.00
2023-04-16T06:13:00.852Z,819.00
2023-04-16T06:14:00.905Z,793.00
2023-04-16T06:15:00.933Z,802.00
2023-04-16T06:16:00.993Z,777.00
2023-04-16T06:17:01.019Z,763.00
2023-04-16T06:18:01.181Z,777.00
2023-04-16T06:19:01.120Z,785.00
2023-04-16T06:20:01.147Z,790.00
2023-04-16T06:21:01.194Z,752.00
2023-04-16T06:22:01.299Z,752.00
2023-04-16T06:23:01.330Z,774.00
2023-04-16T06:24:01.427Z,755.00
2023-04-16T06:25:01.439Z,733.00
2023-04-16T06:26:01.501Z,720.00
2023-04-16T06:27:01.675Z,706.00
2023-04-16T06:28:01.624Z,709.00
2023-04-16T06:29:01.692Z,702.00
2023-04-16T06:30:01.768Z,691.00
2023-04-16T06:31:01.935Z,698.00
2023-04-16T06:32:01.877Z,693.00
2023-04-16T06:33:01.972Z,709.00
2023-04-16T06:34:02.000Z,687.00
2023-04-16T06:35:02.063Z,690.00
2023-04-16T06:36:02.183Z,676.00
2023-04-16T06:37:02.164Z,687.00
2023-04-16T06:38:02.228Z,660.00
2023-04-16T06:39:02.290Z,661.00
2023-04-16T06:40:02.350Z,660.00
2023-04-16T06:41:02.380Z,655.00
2023-04-16T06:42:02.445Z,651.00
2023-04-16T06:43:02.466Z,660.00
2023-04-16T06:44:02.518Z,651.00
2023-04-16T06:45:02.575Z,657.00
2023-04-16T06:46:02.668Z,661.00
2023-04-16T06:47:02.780Z,651.00
2023-04-16T06:48:02.748Z,640.00
2023-04-16T06:49:02.758Z,628.00
2023-04-16T06:50:02.835Z,630.00
2023-04-16T06:51:02.881Z,622.00
2023-04-16T06:52:05.717Z,618.00
2023-04-16T06:53:02.937Z,614.00
2023-04-16T06:54:02.940Z,603.00
2023-04-16T06:55:02.970Z,602.00
2023-04-16T06:56:02.961Z,588.00
2023-04-16T06:57:02.953Z,586.00
2023-04-16T06:58:02.963Z,592.00
2023-04-16T06:59:02.968Z,585.00
2023-04-16T07:00:02.971Z,578.00
2023-04-16T07:01:02.999Z,580.00
2023-04-16T07:02:03.023Z,583.00
2023-04-16T07:03:03.126Z,576.00
2023-04-16T07:04:03.055Z,574.00
2023-04-16T07:05:02.991Z,580.00
2023-04-16T07:06:02.995Z,573.00
2023-04-16T07:07:02.997Z,568.00
2023-04-16T07:08:03.019Z,575.00
2023-04-16T07:09:02.997Z,568.00
2023-04-16T07:10:03.032Z,573.00
2023-04-16T07:11:03.001Z,583.00
2023-04-16T07:12:03.005Z,586.00
2023-04-16T07:13:03.012Z,581.00
2023-04-16T07:14:03.004Z,581.00
2023-04-16T07:15:03.007Z,566.00
2023-04-16T07:16:03.044Z,553.00
2023-04-16T07:17:03.018Z,561.00
2023-04-16T07:18:03.040Z,556.00
2023-04-16T07:19:02.988Z,555.00
2023-04-16T07:20:03.010Z,557.00
2023-04-16T07:21:03.010Z,548.00
2023-04-16T07:22:03.021Z,557.00
2023-04-16T07:23:02.998Z,565.00
2023-04-16T07:24:02.997Z,565.00
2023-04-16T07:25:03.028Z,561.00
2023-04-16T07:26:03.087Z,550.00
2023-04-16T07:27:03.143Z,554.00
2023-04-16T07:28:03.187Z,548.00
2023-04-16T07:29:03.255Z,550.00
2023-04-16T07:30:03.307Z,548.00
2023-04-16T07:31:03.375Z,547.00
2023-04-16T07:32:03.467Z,544.00
2023-04-16T07:33:03.480Z,542.00
2023-04-16T07:34:03.504Z,552.00
2023-04-16T07:35:03.573Z,550.00
2023-04-16T07:36:03.609Z,544.00
2023-04-16T07:37:03.680Z,547.00
2023-04-16T07:38:03.709Z,543.00
2023-04-16T07:39:03.778Z,536.00
2023-04-16T07:40:03.824Z,541.00
2023-04-16T07:41:03.876Z,542.00
2023-04-16T07:42:03.934Z,540.00
2023-04-16T07:43:03.918Z,540.00
2023-04-16T07:44:03.916Z,538.00
2023-04-16T07:45:03.914Z,532.00
2023-04-16T07:46:04.033Z,541.00
2023-04-16T07:47:05.383Z,546.00
2023-04-16T07:48:03.956Z,540.00
2023-04-16T07:49:03.904Z,542.00
2023-04-16T07:50:03.916Z,542.00
2023-04-16T07:51:03.918Z,546.00
2023-04-16T07:52:03.912Z,544.00
2023-04-16T07:53:03.941Z,539.00
2023-04-16T07:54:03.990Z,529.00
2023-04-16T07:55:04.052Z,532.00
2023-04-16T07:56:04.135Z,530.00
2023-04-16T07:57:04.181Z,533.00
2023-04-16T07:58:04.269Z,538.00
2023-04-16T07:59:14.861Z,536.00
2023-04-16T08:00:05.337Z,537.00
2023-04-16T08:01:04.356Z,537.00
2023-04-16T08:02:04.446Z,540.00
2023-04-16T08:03:04.532Z,541.00
2023-04-16T08:04:04.506Z,551.00
2023-04-16T08:05:04.463Z,551.00
2023-04-16T08:06:04.414Z,547.00
2023-04-16T08:07:04.408Z,556.00
2023-04-16T08:08:04.403Z,546.00
2023-04-16T08:09:04.419Z,555.00
2023-04-16T08:10:04.458Z,549.00
2023-04-16T08:11:04.549Z,558.00
2023-04-16T08:12:04.607Z,553.00
2023-04-16T08:13:04.676Z,556.00
2023-04-16T08:14:04.752Z,551.00
2023-04-16T08:15:04.808Z,554.00
2023-04-16T08:16:04.926Z,562.00
2023-04-16T08:17:04.961Z,571.00
2023-04-16T08:18:05.070Z,572.00
2023-04-16T08:19:05.068Z,566.00
2023-04-16T08:20:05.150Z,569.00
2023-04-16T08:21:05.210Z,574.00
2023-04-16T08:22:05.283Z,569.00
2023-04-16T08:23:05.346Z,572.00
2023-04-16T08:24:05.425Z,567.00
2023-04-16T08:25:05.489Z,568.00
2023-04-16T08:26:05.563Z,568.00
2023-04-16T08:27:17.871Z,575.00
2023-04-16T08:28:06.626Z,570.00
2023-04-16T08:29:05.634Z,572.00
2023-04-16T08:30:05.635Z,576.00
2023-04-16T08:31:05.712Z,572.00
2023-04-16T08:32:05.652Z,569.00
2023-04-16T08:33:05.725Z,567.00
2023-04-16T08:34:05.678Z,567.00
2023-04-16T08:35:05.682Z,574.00
2023-04-16T08:36:05.688Z,573.00
2023-04-16T08:37:05.718Z,576.00
2023-04-16T08:38:05.778Z,568.00
2023-04-16T08:39:05.835Z,569.00
2023-04-16T08:40:05.892Z,572.00
2023-04-16T08:41:05.983Z,569.00
2023-04-16T08:42:06.095Z,577.00
2023-04-16T08:43:06.069Z,577.00
2023-04-16T08:44:06.122Z,577.00
2023-04-16T08:45:06.180Z,573.00
2023-04-16T08:46:06.329Z,579.00
2023-04-16T08:47:06.417Z,611.00
2023-04-16T08:48:06.362Z,636.00
2023-04-16T08:49:06.409Z,649.00
2023-04-16T08:50:06.474Z,693.00
2023-04-16T08:51:06.541Z,760.00
2023-04-16T08:52:06.630Z,812.00
2023-04-16T08:53:06.659Z,887.00
2023-04-16T08:54:06.718Z,929.00
2023-04-16T08:55:06.778Z,968.00
2023-04-16T08:56:06.820Z,983.00
2023-04-16T08:57:06.854Z,1039.00
2023-04-16T08:58:06.896Z,1094.00
2023-04-16T08:59:07.061Z,1171.00
2023-04-16T09:00:06.976Z,1217.00
2023-04-16T09:01:07.033Z,1266.00
2023-04-16T09:02:07.140Z,1291.00
2023-04-16T09:03:07.252Z,1349.00
2023-04-16T09:04:07.295Z,1407.00
2023-04-16T09:05:07.112Z,1464.00
2023-04-16T09:06:07.165Z,1498.00
2023-04-16T09:07:07.149Z,1517.00
2023-04-16T09:08:07.163Z,1562.00
2023-04-16T09:09:07.250Z,1609.00
2023-04-16T09:10:07.164Z,1633.00
2023-04-16T09:11:07.165Z,1659.00
2023-04-16T09:12:07.170Z,1688.00
2023-04-16T09:13:07.176Z,1740.00
2023-04-16T09:14:07.174Z,1762.00
2023-04-16T09:15:07.190Z,1789.00
2023-04-16T09:16:07.234Z,1792.00
2023-04-16T09:17:07.214Z,1826.00
2023-04-16T09:18:07.233Z,1861.00
2023-04-16T09:19:07.317Z,1912.00
2023-04-16T09:20:07.289Z,1935.00
2023-04-16T09:21:07.354Z,1959.00
2023-04-16T09:22:07.359Z,1972.00
2023-04-16T09:23:07.397Z,1992.00
2023-04-16T09:24:07.452Z,2012.00
2023-04-16T09:25:07.487Z,2034.00
2023-04-16T09:26:07.528Z,2066.00
2023-04-16T09:27:07.544Z,2094.00
2023-04-16T09:28:07.639Z,2103.00
2023-04-16T09:29:07.778Z,2118.00
2023-04-16T09:30:07.721Z,2143.00
2023-04-16T09:31:07.774Z,2138.00
2023-04-16T09:32:07.908Z,2168.00
2023-04-16T09:33:07.908Z,2198.00
2023-04-16T09:34:07.985Z,2209.00
2023-04-16T09:35:08.037Z,2228.00
2023-04-16T09:36:08.115Z,2240.00
2023-04-16T09:37:08.177Z,2247.00
2023-04-16T09:38:08.235Z,2261.00
2023-04-16T09:39:08.474Z,2270.00
2023-04-16T09:40:08.346Z,2283.00
2023-04-16T09:41:08.443Z,2291.00
2023-04-16T09:42:08.460Z,2308.00
2023-04-16T09:43:08.531Z,2325.00
2023-04-16T09:44:08.596Z,2344.00
2023-04-16T09:45:08.629Z,2347.00
2023-04-16T09:46:08.776Z,2361.00
2023-04-16T09:47:08.731Z,2362.00
2023-04-16T09:48:08.758Z,2384.00
2023-04-16T09:49:09.172Z,2391.00
2023-04-16T09:50:10.471Z,2390.00
2023-04-16T09:51:08.861Z,2393.00
2023-04-16T09:52:08.856Z,2418.00
2023-04-16T09:53:08.843Z,2434.00
2023-04-16T09:54:08.866Z,2439.00
2023-04-16T09:55:08.821Z,2429.00
2023-04-16T09:56:08.820Z,2415.00
2023-04-16T09:57:08.817Z,2433.00
2023-04-16T09:58:08.781Z,2464.00
2023-04-16T09:59:09.017Z,2462.00
2023-04-16T10:00:08.772Z,2464.00
2023-04-16T10:01:08.787Z,2446.00
2023-04-16T10:02:15.326Z,2470.00
2023-04-16T10:03:09.782Z,2472.00
2023-04-16T10:04:08.829Z,2471.00
2023-04-16T10:05:08.726Z,2470.00
2023-04-16T10:06:08.719Z,2466.00
2023-04-16T10:07:08.710Z,2498.00
2023-04-16T10:08:08.693Z,2491.00
2023-04-16T10:09:08.987Z,2493.00
2023-04-16T10:10:08.699Z,2498.00
2023-04-16T10:11:08.672Z,2494.00
2023-04-16T10:12:08.667Z,2502.00
2023-04-16T10:13:08.664Z,2496.00
2023-04-16T10:14:08.653Z,2539.00
2023-04-16T10:15:08.650Z,2529.00
2023-04-16T10:16:08.638Z,2502.00
2023-04-16T10:17:08.676Z,2510.00
2023-04-16T10:18:08.707Z,2479.00
2023-04-16T10:19:08.860Z,2526.00
2023-04-16T10:20:08.590Z,2528.00
2023-04-16T10:21:08.602Z,2533.00
2023-04-16T10:22:08.570Z,2533.00
2023-04-16T10:23:08.560Z,2545.00
2023-04-16T10:24:08.546Z,2514.00
2023-04-16T10:25:08.538Z,2528.00
2023-04-16T10:26:08.508Z,2539.00
2023-04-16T10:27:08.496Z,2534.00
2023-04-16T10:28:08.501Z,2546.00
2023-04-16T10:29:08.628Z,2525.00
2023-04-16T10:30:08.454Z,2550.00
2023-04-16T10:31:08.484Z,2515.00
2023-04-16T10:32:08.420Z,2518.00
2023-04-16T10:33:08.421Z,2552.00
2023-04-16T10:34:08.367Z,2577.00
2023-04-16T10:35:08.346Z,2551.00
2023-04-16T10:36:08.340Z,2538.00
2023-04-16T10:37:08.327Z,2547.00
2023-04-16T10:38:08.307Z,2551.00
2023-04-16T10:39:08.362Z,2526.00
2023-04-16T10:40:08.272Z,2528.00
2023-04-16T10:41:08.265Z,2529.00
2023-04-16T10:42:08.265Z,2539.00
2023-04-16T10:43:08.236Z,2540.00
2023-04-16T10:44:08.244Z,2540.00
2023-04-16T10:45:08.231Z,2541.00
2023-04-16T10:46:08.218Z,2551.00
2023-04-16T10:47:08.184Z,2564.00
2023-04-16T10:48:08.156Z,2532.00
2023-04-16T10:49:08.342Z,2536.00
2023-04-16T10:50:08.141Z,2556.00
2023-04-16T10:51:08.165Z,2537.00
2023-04-16T10:52:08.128Z,2535.00
2023-04-16T10:53:08.118Z,2542.00
2023-04-16T10:54:08.098Z,2540.00
2023-04-16T10:55:08.108Z,2541.00
2023-04-16T10:56:08.077Z,2529.00
2023-04-16T10:57:08.084Z,2534.00
2023-04-16T10:58:08.047Z,2536.00
2023-04-16T10:59:08.176Z,2537.00
2023-04-16T11:00:08.008Z,2542.00
2023-04-16T11:01:07.993Z,2544.00
2023-04-16T11:02:08.049Z,2573.00
2023-04-16T11:03:08.061Z,2546.00
2023-04-16T11:04:08.101Z,2562.00
2023-04-16T11:05:07.940Z,2536.00
2023-04-16T11:06:07.923Z,2576.00
2023-04-16T11:07:07.912Z,2535.00
2023-04-16T11:08:07.904Z,2568.00
2023-04-16T11:09:07.875Z,2553.00
2023-04-16T11:10:07.862Z,2565.00
2023-04-16T11:11:07.858Z,2562.00
2023-04-16T11:12:07.910Z,2564.00
2023-04-16T11:13:07.974Z,2558.00
2023-04-16T11:14:08.036Z,2575.00
2023-04-16T11:15:08.117Z,2563.00
2023-04-16T11:16:08.177Z,2561.00
2023-04-16T11:17:08.206Z,2559.00
2023-04-16T11:18:08.315Z,2559.00
2023-04-16T11:19:08.407Z,2558.00
2023-04-16T11:20:19.987Z,2565.00
2023-04-16T11:21:09.384Z,2566.00
2023-04-16T11:22:08.344Z,2565.00
2023-04-16T11:23:08.333Z,2570.00
2023-04-16T11:24:08.314Z,2572.00
2023-04-16T11:25:08.313Z,2569.00
2023-04-16T11:26:08.284Z,2577.00
2023-04-16T11:27:08.288Z,2568.00
2023-04-16T11:28:08.287Z,2568.00
2023-04-16T11:29:08.467Z,2563.00
2023-04-16T11:30:08.400Z,2558.00
2023-04-16T11:31:08.532Z,2570.00
2023-04-16T11:32:08.515Z,2550.00
2023-04-16T11:33:08.554Z,2561.00
2023-04-16T11:34:08.619Z,2553.00
2023-04-16T11:35:08.659Z,2565.00
2023-04-16T11:36:08.725Z,2553.00
2023-04-16T11:37:08.775Z,2556.00
2023-04-16T11:38:08.851Z,2552.00
2023-04-16T11:39:09.078Z,2561.00
2023-04-16T11:40:08.929Z,2550.00
2023-04-16T11:41:08.936Z,2551.00
2023-04-16T11:42:08.957Z,2553.00
2023-04-16T11:43:08.878Z,2556.00
2023-04-16T11:44:08.850Z,2543.00
2023-04-16T11:45:08.852Z,2554.00
2023-04-16T11:46:20.585Z,2561.00
2023-04-16T11:47:09.847Z,2562.00
2023-04-16T11:48:10.658Z,2562.00
2023-04-16T11:49:09.130Z,2552.00
2023-04-16T11:50:08.817Z,2558.00
2023-04-16T11:51:08.866Z,2555.00
2023-04-16T11:52:08.906Z,2558.00
2023-04-16T11:53:08.969Z,2559.00
2023-04-16T11:54:11.687Z,2547.00
2023-04-16T11:55:08.984Z,2561.00
2023-04-16T11:56:08.959Z,2541.00
2023-04-16T11:57:08.963Z,2541.00
2023-04-16T11:58:08.947Z,2530.00
2023-04-16T11:59:09.255Z,2540.00
2023-04-16T12:00:10.569Z,2552.00
2023-04-16T12:01:08.901Z,2551.00
2023-04-16T12:02:08.913Z,2544.00
2023-04-16T12:03:08.967Z,2540.00
2023-04-16T12:04:09.136Z,2525.00
2023-04-16T12:05:08.909Z,2529.00
2023-04-16T12:06:08.818Z,2530.00
2023-04-16T12:07:08.790Z,2538.00
2023-04-16T12:08:08.805Z,2539.00
2023-04-16T12:09:09.071Z,2521.00
2023-04-16T12:10:08.785Z,2541.00
2023-04-16T12:11:08.859Z,2521.00
2023-04-16T12:12:08.899Z,2531.00
2023-04-16T12:13:09.000Z,2522.00
2023-04-16T12:14:09.004Z,2515.00
2023-04-16T12:15:09.082Z,2520.00
2023-04-16T12:16:09.117Z,2510.00
2023-04-16T12:17:09.207Z,2506.00
2023-04-16T12:18:09.243Z,2509.00